sensor_id;sensor_type;location;lat;lon;timestamp;P1;durP1;ratioP1;P2;durP2;ratioP2
67074;SDS011;53990;50.334;18.640;2023-06-22T00:01:19;23.30;;;18.10;;
67074;SDS011;53990;50.334;18.640;2023-06-22T00:03:46;20.30;;;16.50;;
67074;SDS011;53990;50.334;18.640;2023-06-22T00:06:13;25.60;;;17.40;;
67074;SDS011;53990;50.334;18.640;2023-06-22T00:08:40;21.00;;;16.50;;
67074;SDS011;53990;50.334;18.640;2023-06-22T00:11:06;25.70;;;17.40;;
67074;SDS011;53990;50.334;18.640;2023-06-22T00:13:33;20.60;;;16.80;;
67074;SDS011;53990;50.334;18.640;2023-06-22T00:16:00;20.30;;;16.70;;
67074;SDS011;53990;50.334;18.640;2023-06-22T00:18:27;21.20;;;17.00;;
67074;SDS011;53990;50.334;18.640;2023-06-22T00:20:57;23.40;;;17.60;;
67074;SDS011;53990;50.334;18.640;2023-06-22T00:23:24;19.60;;;16.50;;
67074;SDS011;53990;50.334;18.640;2023-06-22T00:25:52;20.90;;;17.50;;
67074;SDS011;53990;50.334;18.640;2023-06-22T00:28:19;21.40;;;16.80;;
67074;SDS011;53990;50.334;18.640;2023-06-22T00:30:46;19.60;;;16.60;;
67074;SDS011;53990;50.334;18.640;2023-06-22T00:33:14;20.80;;;16.90;;
67074;SDS011;53990;50.334;18.640;2023-06-22T00:35:40;24.10;;;17.60;;
67074;SDS011;53990;50.334;18.640;2023-06-22T00:38:07;21.30;;;18.50;;
67074;SDS011;53990;50.334;18.640;2023-06-22T00:40:34;23.00;;;17.10;;
67074;SDS011;53990;50.334;18.640;2023-06-22T00:43:01;22.20;;;16.80;;
67074;SDS011;53990;50.334;18.640;2023-06-22T00:45:28;22.20;;;16.80;;
67074;SDS011;53990;50.334;18.640;2023-06-22T00:47:59;22.80;;;17.50;;
67074;SDS011;53990;50.334;18.640;2023-06-22T00:50:28;20.80;;;17.30;;
67074;SDS011;53990;50.334;18.640;2023-06-22T00:52:57;18.60;;;16.30;;
67074;SDS011;53990;50.334;18.640;2023-06-22T00:55:25;20.50;;;17.00;;
67074;SDS011;53990;50.334;18.640;2023-06-22T00:57:53;20.30;;;17.20;;
67074;SDS011;53990;50.334;18.640;2023-06-22T01:00:24;20.40;;;16.70;;
67074;SDS011;53990;50.334;18.640;2023-06-22T01:02:52;23.50;;;18.30;;
67074;SDS011;53990;50.334;18.640;2023-06-22T01:05:21;19.60;;;17.50;;
67074;SDS011;53990;50.334;18.640;2023-06-22T01:08:03;19.20;;;17.00;;
67074;SDS011;53990;50.334;18.640;2023-06-22T01:10:44;21.00;;;16.40;;
67074;SDS011;53990;50.334;18.640;2023-06-22T01:13:20;20.30;;;16.50;;
67074;SDS011;53990;50.334;18.640;2023-06-22T01:15:53;21.70;;;16.80;;
67074;SDS011;53990;50.334;18.640;2023-06-22T01:18:23;20.10;;;16.40;;
67074;SDS011;53990;50.334;18.640;2023-06-22T01:20:53;21.00;;;16.80;;
67074;SDS011;53990;50.334;18.640;2023-06-22T01:26:43;20.00;;;15.90;;
67074;SDS011;53990;50.334;18.640;2023-06-22T01:29:12;20.60;;;17.40;;
67074;SDS011;53990;50.334;18.640;2023-06-22T01:31:40;21.70;;;18.10;;
67074;SDS011;53990;50.334;18.640;2023-06-22T01:34:09;21.00;;;18.20;;
67074;SDS011;53990;50.334;18.640;2023-06-22T01:36:36;19.00;;;16.50;;
67074;SDS011;53990;50.334;18.640;2023-06-22T01:39:05;19.80;;;16.10;;
67074;SDS011;53990;50.334;18.640;2023-06-22T01:41:37;22.40;;;16.90;;
67074;SDS011;53990;50.334;18.640;2023-06-22T01:44:05;19.70;;;17.20;;
67074;SDS011;53990;50.334;18.640;2023-06-22T01:46:36;19.80;;;16.50;;
67074;SDS011;53990;50.334;18.640;2023-06-22T01:49:04;20.60;;;16.80;;
67074;SDS011;53990;50.334;18.640;2023-06-22T01:51:31;18.40;;;16.10;;
67074;SDS011;53990;50.334;18.640;2023-06-22T01:53:58;20.80;;;17.10;;
67074;SDS011;53990;50.334;18.640;2023-06-22T01:56:26;19.20;;;16.40;;
67074;SDS011;53990;50.334;18.640;2023-06-22T01:59:57;20.00;;;16.70;;
67074;SDS011;53990;50.334;18.640;2023-06-22T02:02:09;20.50;;;16.10;;
67074;SDS011;53990;50.334;18.640;2023-06-22T02:04:39;20.60;;;15.90;;
67074;SDS011;53990;50.334;18.640;2023-06-22T02:07:11;23.20;;;17.00;;
67074;SDS011;53990;50.334;18.640;2023-06-22T02:09:40;18.70;;;16.70;;
67074;SDS011;53990;50.334;18.640;2023-06-22T02:12:10;18.90;;;16.70;;
67074;SDS011;53990;50.334;18.640;2023-06-22T02:14:38;20.20;;;17.30;;
67074;SDS011;53990;50.334;18.640;2023-06-22T02:17:07;22.10;;;18.30;;
67074;SDS011;53990;50.334;18.640;2023-06-22T02:19:41;22.10;;;17.10;;
67074;SDS011;53990;50.334;18.640;2023-06-22T02:22:07;19.40;;;17.00;;
67074;SDS011;53990;50.334;18.640;2023-06-22T02:24:34;22.20;;;18.00;;
67074;SDS011;53990;50.334;18.640;2023-06-22T02:27:02;20.00;;;17.10;;
67074;SDS011;53990;50.334;18.640;2023-06-22T02:29:29;21.70;;;16.90;;
67074;SDS011;53990;50.334;18.640;2023-06-22T02:31:55;21.60;;;18.00;;
67074;SDS011;53990;50.334;18.640;2023-06-22T02:34:22;23.90;;;18.00;;
67074;SDS011;53990;50.334;18.640;2023-06-22T02:36:49;23.00;;;17.80;;
67074;SDS011;53990;50.334;18.640;2023-06-22T02:39:24;20.40;;;17.00;;
67074;SDS011;53990;50.334;18.640;2023-06-22T02:41:52;21.60;;;17.90;;
67074;SDS011;53990;50.334;18.640;2023-06-22T02:44:19;20.80;;;17.20;;
67074;SDS011;53990;50.334;18.640;2023-06-22T02:46:47;20.90;;;17.60;;
67074;SDS011;53990;50.334;18.640;2023-06-22T02:49:14;22.40;;;18.00;;
67074;SDS011;53990;50.334;18.640;2023-06-22T02:51:44;21.40;;;17.20;;
67074;SDS011;53990;50.334;18.640;2023-06-22T02:54:11;21.50;;;16.80;;
67074;SDS011;53990;50.334;18.640;2023-06-22T02:56:38;21.30;;;18.90;;
67074;SDS011;53990;50.334;18.640;2023-06-22T02:59:07;20.30;;;17.30;;
67074;SDS011;53990;50.334;18.640;2023-06-22T03:01:33;20.20;;;17.50;;
67074;SDS011;53990;50.334;18.640;2023-06-22T03:04:07;20.30;;;17.20;;
67074;SDS011;53990;50.334;18.640;2023-06-22T03:06:34;20.80;;;17.80;;
67074;SDS011;53990;50.334;18.640;2023-06-22T03:09:02;21.80;;;18.90;;
67074;SDS011;53990;50.334;18.640;2023-06-22T03:11:31;21.30;;;19.00;;
67074;SDS011;53990;50.334;18.640;2023-06-22T03:13:58;21.70;;;19.30;;
67074;SDS011;53990;50.334;18.640;2023-06-22T03:16:25;24.80;;;18.50;;
67074;SDS011;53990;50.334;18.640;2023-06-22T03:18:52;26.10;;;19.40;;
67074;SDS011;53990;50.334;18.640;2023-06-22T03:21:22;24.40;;;20.80;;
67074;SDS011;53990;50.334;18.640;2023-06-22T03:23:49;27.80;;;21.00;;
67074;SDS011;53990;50.334;18.640;2023-06-22T03:26:17;24.10;;;20.60;;
67074;SDS011;53990;50.334;18.640;2023-06-22T03:28:44;23.40;;;20.40;;
67074;SDS011;53990;50.334;18.640;2023-06-22T03:31:11;23.50;;;20.00;;
67074;SDS011;53990;50.334;18.640;2023-06-22T03:33:38;26.40;;;20.80;;
67074;SDS011;53990;50.334;18.640;2023-06-22T03:36:04;23.30;;;20.80;;
67074;SDS011;53990;50.334;18.640;2023-06-22T03:38:32;23.90;;;19.00;;
67074;SDS011;53990;50.334;18.640;2023-06-22T03:40:58;25.30;;;20.30;;
67074;SDS011;53990;50.334;18.640;2023-06-22T03:43:25;24.00;;;19.50;;
67074;SDS011;53990;50.334;18.640;2023-06-22T03:45:52;23.00;;;19.50;;
67074;SDS011;53990;50.334;18.640;2023-06-22T03:48:18;23.60;;;20.40;;
67074;SDS011;53990;50.334;18.640;2023-06-22T03:50:45;23.30;;;20.70;;
67074;SDS011;53990;50.334;18.640;2023-06-22T03:53:12;25.70;;;21.70;;
67074;SDS011;53990;50.334;18.640;2023-06-22T03:55:48;25.00;;;22.30;;
67074;SDS011;53990;50.334;18.640;2023-06-22T04:00:42;27.40;;;22.50;;
67074;SDS011;53990;50.334;18.640;2023-06-22T04:03:09;25.20;;;22.60;;
67074;SDS011;53990;50.334;18.640;2023-06-22T04:05:35;28.50;;;24.40;;
67074;SDS011;53990;50.334;18.640;2023-06-22T04:08:02;24.50;;;21.30;;
67074;SDS011;53990;50.334;18.640;2023-06-22T04:10:29;28.10;;;23.20;;
67074;SDS011;53990;50.334;18.640;2023-06-22T04:12:56;27.10;;;23.00;;
67074;SDS011;53990;50.334;18.640;2023-06-22T04:15:22;26.90;;;22.70;;
67074;SDS011;53990;50.334;18.640;2023-06-22T04:17:49;26.20;;;23.10;;
67074;SDS011;53990;50.334;18.640;2023-06-22T04:20:16;25.70;;;22.80;;
67074;SDS011;53990;50.334;18.640;2023-06-22T04:22:43;29.50;;;25.90;;
67074;SDS011;53990;50.334;18.640;2023-06-22T04:25:09;31.50;;;27.50;;
67074;SDS011;53990;50.334;18.640;2023-06-22T04:27:36;31.00;;;25.50;;
67074;SDS011;53990;50.334;18.640;2023-06-22T04:30:04;29.40;;;25.90;;
67074;SDS011;53990;50.334;18.640;2023-06-22T04:32:31;31.40;;;25.40;;
67074;SDS011;53990;50.334;18.640;2023-06-22T04:34:57;30.50;;;25.60;;
67074;SDS011;53990;50.334;18.640;2023-06-22T04:37:24;29.10;;;26.00;;
67074;SDS011;53990;50.334;18.640;2023-06-22T04:39:51;33.60;;;28.60;;
67074;SDS011;53990;50.334;18.640;2023-06-22T04:42:18;32.20;;;28.40;;
67074;SDS011;53990;50.334;18.640;2023-06-22T04:44:44;33.30;;;28.50;;
67074;SDS011;53990;50.334;18.640;2023-06-22T04:47:11;33.70;;;28.20;;
67074;SDS011;53990;50.334;18.640;2023-06-22T04:49:38;33.90;;;28.40;;
67074;SDS011;53990;50.334;18.640;2023-06-22T04:52:08;31.00;;;27.70;;
67074;SDS011;53990;50.334;18.640;2023-06-22T04:54:37;32.50;;;29.10;;
67074;SDS011;53990;50.334;18.640;2023-06-22T04:57:06;34.70;;;30.10;;
67074;SDS011;53990;50.334;18.640;2023-06-22T04:59:37;35.30;;;31.50;;
67074;SDS011;53990;50.334;18.640;2023-06-22T05:02:05;32.10;;;28.80;;
67074;SDS011;53990;50.334;18.640;2023-06-22T05:04:32;32.30;;;29.00;;
67074;SDS011;53990;50.334;18.640;2023-06-22T05:06:59;33.80;;;28.50;;
67074;SDS011;53990;50.334;18.640;2023-06-22T05:09:26;30.30;;;27.20;;
67074;SDS011;53990;50.334;18.640;2023-06-22T05:11:54;32.90;;;29.60;;
67074;SDS011;53990;50.334;18.640;2023-06-22T05:14:20;32.10;;;29.00;;
67074;SDS011;53990;50.334;18.640;2023-06-22T05:16:48;32.50;;;29.00;;
67074;SDS011;53990;50.334;18.640;2023-06-22T05:19:16;31.80;;;28.60;;
67074;SDS011;53990;50.334;18.640;2023-06-22T05:21:43;31.90;;;28.70;;
67074;SDS011;53990;50.334;18.640;2023-06-22T05:24:09;29.60;;;26.50;;
67074;SDS011;53990;50.334;18.640;2023-06-22T05:26:36;30.90;;;27.60;;
67074;SDS011;53990;50.334;18.640;2023-06-22T05:29:03;31.80;;;28.40;;
67074;SDS011;53990;50.334;18.640;2023-06-22T05:31:30;29.60;;;26.50;;
67074;SDS011;53990;50.334;18.640;2023-06-22T05:33:56;29.60;;;26.60;;
67074;SDS011;53990;50.334;18.640;2023-06-22T05:36:23;30.80;;;27.60;;
67074;SDS011;53990;50.334;18.640;2023-06-22T05:38:56;28.20;;;25.30;;
67074;SDS011;53990;50.334;18.640;2023-06-22T05:41:25;31.50;;;27.80;;
67074;SDS011;53990;50.334;18.640;2023-06-22T05:43:52;30.40;;;26.70;;
67074;SDS011;53990;50.334;18.640;2023-06-22T05:46:19;31.60;;;28.50;;
67074;SDS011;53990;50.334;18.640;2023-06-22T05:48:46;30.20;;;27.20;;
67074;SDS011;53990;50.334;18.640;2023-06-22T05:51:12;29.20;;;26.20;;
67074;SDS011;53990;50.334;18.640;2023-06-22T05:53:39;31.30;;;26.90;;
67074;SDS011;53990;50.334;18.640;2023-06-22T05:56:06;29.40;;;26.30;;
67074;SDS011;53990;50.334;18.640;2023-06-22T05:58:32;29.30;;;26.20;;
67074;SDS011;53990;50.334;18.640;2023-06-22T06:00:59;29.80;;;26.40;;
67074;SDS011;53990;50.334;18.640;2023-06-22T06:03:27;28.60;;;25.70;;
67074;SDS011;53990;50.334;18.640;2023-06-22T06:05:55;30.50;;;26.10;;
67074;SDS011;53990;50.334;18.640;2023-06-22T06:08:22;30.00;;;27.10;;
67074;SDS011;53990;50.334;18.640;2023-06-22T06:10:48;26.90;;;23.90;;
67074;SDS011;53990;50.334;18.640;2023-06-22T06:13:15;29.60;;;26.60;;
67074;SDS011;53990;50.334;18.640;2023-06-22T06:15:42;28.70;;;25.80;;
67074;SDS011;53990;50.334;18.640;2023-06-22T06:18:08;29.50;;;26.30;;
67074;SDS011;53990;50.334;18.640;2023-06-22T06:20:35;28.60;;;25.60;;
67074;SDS011;53990;50.334;18.640;2023-06-22T06:23:02;27.90;;;25.10;;
67074;SDS011;53990;50.334;18.640;2023-06-22T06:25:28;28.30;;;25.60;;
67074;SDS011;53990;50.334;18.640;2023-06-22T06:27:55;28.50;;;25.60;;
67074;SDS011;53990;50.334;18.640;2023-06-22T06:30:22;27.20;;;24.30;;
67074;SDS011;53990;50.334;18.640;2023-06-22T06:32:49;26.50;;;23.70;;
67074;SDS011;53990;50.334;18.640;2023-06-22T06:35:16;27.00;;;24.20;;
67074;SDS011;53990;50.334;18.640;2023-06-22T06:37:46;28.10;;;25.30;;
67074;SDS011;53990;50.334;18.640;2023-06-22T06:40:14;26.50;;;23.80;;
67074;SDS011;53990;50.334;18.640;2023-06-22T06:42:43;26.20;;;23.30;;
67074;SDS011;53990;50.334;18.640;2023-06-22T06:45:12;26.50;;;23.90;;
67074;SDS011;53990;50.334;18.640;2023-06-22T06:47:41;27.00;;;24.20;;
67074;SDS011;53990;50.334;18.640;2023-06-22T06:50:08;26.10;;;23.30;;
67074;SDS011;53990;50.334;18.640;2023-06-22T06:52:35;25.60;;;23.10;;
67074;SDS011;53990;50.334;18.640;2023-06-22T06:55:02;25.70;;;23.00;;
67074;SDS011;53990;50.334;18.640;2023-06-22T06:57:31;23.20;;;20.90;;
67074;SDS011;53990;50.334;18.640;2023-06-22T06:59:58;24.00;;;21.60;;
67074;SDS011;53990;50.334;18.640;2023-06-22T07:02:26;22.40;;;20.00;;
67074;SDS011;53990;50.334;18.640;2023-06-22T07:04:54;22.00;;;19.50;;
67074;SDS011;53990;50.334;18.640;2023-06-22T07:07:22;19.80;;;17.80;;
67074;SDS011;53990;50.334;18.640;2023-06-22T07:09:48;21.90;;;19.60;;
67074;SDS011;53990;50.334;18.640;2023-06-22T07:12:15;19.60;;;17.60;;
67074;SDS011;53990;50.334;18.640;2023-06-22T07:14:42;19.90;;;17.80;;
67074;SDS011;53990;50.334;18.640;2023-06-22T07:17:08;19.40;;;17.40;;
67074;SDS011;53990;50.334;18.640;2023-06-22T07:19:35;17.90;;;16.10;;
67074;SDS011;53990;50.334;18.640;2023-06-22T07:22:02;16.60;;;15.10;;
67074;SDS011;53990;50.334;18.640;2023-06-22T07:24:29;16.50;;;14.80;;
67074;SDS011;53990;50.334;18.640;2023-06-22T07:26:55;19.00;;;16.40;;
67074;SDS011;53990;50.334;18.640;2023-06-22T07:29:23;16.30;;;14.70;;
67074;SDS011;53990;50.334;18.640;2023-06-22T07:31:50;16.70;;;14.90;;
67074;SDS011;53990;50.334;18.640;2023-06-22T07:34:20;16.50;;;14.90;;
67074;SDS011;53990;50.334;18.640;2023-06-22T07:36:47;15.80;;;14.20;;
67074;SDS011;53990;50.334;18.640;2023-06-22T07:39:14;16.00;;;14.40;;
67074;SDS011;53990;50.334;18.640;2023-06-22T07:41:41;16.50;;;14.70;;
67074;SDS011;53990;50.334;18.640;2023-06-22T07:44:07;16.60;;;15.00;;
67074;SDS011;53990;50.334;18.640;2023-06-22T07:46:34;16.20;;;14.60;;
67074;SDS011;53990;50.334;18.640;2023-06-22T07:49:01;15.30;;;13.80;;
67074;SDS011;53990;50.334;18.640;2023-06-22T07:51:28;15.60;;;14.00;;
67074;SDS011;53990;50.334;18.640;2023-06-22T07:53:55;15.70;;;14.20;;
67074;SDS011;53990;50.334;18.640;2023-06-22T07:56:22;15.10;;;13.60;;
67074;SDS011;53990;50.334;18.640;2023-06-22T07:58:48;15.30;;;13.80;;
67074;SDS011;53990;50.334;18.640;2023-06-22T08:01:15;15.30;;;13.70;;
67074;SDS011;53990;50.334;18.640;2023-06-22T08:03:43;14.90;;;13.30;;
67074;SDS011;53990;50.334;18.640;2023-06-22T08:06:09;15.70;;;14.10;;
67074;SDS011;53990;50.334;18.640;2023-06-22T08:08:36;15.80;;;14.20;;
67074;SDS011;53990;50.334;18.640;2023-06-22T08:11:03;15.80;;;13.30;;
67074;SDS011;53990;50.334;18.640;2023-06-22T08:13:30;14.70;;;13.20;;
67074;SDS011;53990;50.334;18.640;2023-06-22T08:15:57;15.10;;;13.50;;
67074;SDS011;53990;50.334;18.640;2023-06-22T08:18:24;16.50;;;14.10;;
67074;SDS011;53990;50.334;18.640;2023-06-22T08:20:51;14.60;;;13.10;;
67074;SDS011;53990;50.334;18.640;2023-06-22T08:23:17;15.10;;;13.50;;
67074;SDS011;53990;50.334;18.640;2023-06-22T08:25:44;14.00;;;12.60;;
67074;SDS011;53990;50.334;18.640;2023-06-22T08:28:11;15.10;;;13.60;;
67074;SDS011;53990;50.334;18.640;2023-06-22T08:30:37;13.80;;;11.70;;
67074;SDS011;53990;50.334;18.640;2023-06-22T08:33:04;12.80;;;11.40;;
67074;SDS011;53990;50.334;18.640;2023-06-22T08:35:31;13.70;;;12.40;;
67074;SDS011;53990;50.334;18.640;2023-06-22T08:37:57;12.50;;;11.30;;
67074;SDS011;53990;50.334;18.640;2023-06-22T08:40:25;13.00;;;11.60;;
67074;SDS011;53990;50.334;18.640;2023-06-22T08:42:52;12.80;;;11.20;;
67074;SDS011;53990;50.334;18.640;2023-06-22T08:45:19;12.30;;;11.10;;
67074;SDS011;53990;50.334;18.640;2023-06-22T08:47:45;12.40;;;11.20;;
67074;SDS011;53990;50.334;18.640;2023-06-22T08:50:12;12.60;;;11.40;;
67074;SDS011;53990;50.334;18.640;2023-06-22T08:52:40;12.80;;;11.60;;
67074;SDS011;53990;50.334;18.640;2023-06-22T08:55:10;13.00;;;11.70;;
67074;SDS011;53990;50.334;18.640;2023-06-22T08:57:37;13.20;;;11.40;;
67074;SDS011;53990;50.334;18.640;2023-06-22T09:00:08;12.90;;;11.60;;
67074;SDS011;53990;50.334;18.640;2023-06-22T09:02:47;12.50;;;11.20;;
67074;SDS011;53990;50.334;18.640;2023-06-22T09:05:14;12.40;;;10.90;;
67074;SDS011;53990;50.334;18.640;2023-06-22T09:07:41;12.40;;;11.20;;
67074;SDS011;53990;50.334;18.640;2023-06-22T09:10:08;13.10;;;11.90;;
67074;SDS011;53990;50.334;18.640;2023-06-22T09:12:35;12.30;;;11.10;;
67074;SDS011;53990;50.334;18.640;2023-06-22T09:15:04;13.50;;;12.20;;
67074;SDS011;53990;50.334;18.640;2023-06-22T09:17:33;13.20;;;11.50;;
67074;SDS011;53990;50.334;18.640;2023-06-22T09:20:01;13.80;;;12.10;;
67074;SDS011;53990;50.334;18.640;2023-06-22T09:22:28;13.60;;;11.80;;
67074;SDS011;53990;50.334;18.640;2023-06-22T09:24:55;13.90;;;11.60;;
67074;SDS011;53990;50.334;18.640;2023-06-22T09:27:22;14.30;;;12.00;;
67074;SDS011;53990;50.334;18.640;2023-06-22T09:29:49;13.20;;;11.80;;
67074;SDS011;53990;50.334;18.640;2023-06-22T09:32:16;12.90;;;11.60;;
67074;SDS011;53990;50.334;18.640;2023-06-22T09:34:43;13.90;;;10.90;;
67074;SDS011;53990;50.334;18.640;2023-06-22T09:37:10;14.70;;;11.50;;
67074;SDS011;53990;50.334;18.640;2023-06-22T09:39:36;13.00;;;11.70;;
67074;SDS011;53990;50.334;18.640;2023-06-22T09:42:03;12.30;;;11.00;;
67074;SDS011;53990;50.334;18.640;2023-06-22T09:44:31;12.20;;;11.00;;
67074;SDS011;53990;50.334;18.640;2023-06-22T09:46:58;11.90;;;10.80;;
67074;SDS011;53990;50.334;18.640;2023-06-22T09:49:25;11.40;;;10.30;;
67074;SDS011;53990;50.334;18.640;2023-06-22T09:51:52;12.10;;;10.90;;
67074;SDS011;53990;50.334;18.640;2023-06-22T09:54:18;13.00;;;11.40;;
67074;SDS011;53990;50.334;18.640;2023-06-22T09:56:45;12.00;;;10.80;;
67074;SDS011;53990;50.334;18.640;2023-06-22T09:59:12;11.50;;;10.40;;
67074;SDS011;53990;50.334;18.640;2023-06-22T10:01:39;11.50;;;9.80;;
67074;SDS011;53990;50.334;18.640;2023-06-22T10:04:05;11.00;;;10.00;;
67074;SDS011;53990;50.334;18.640;2023-06-22T10:06:32;11.80;;;10.50;;
67074;SDS011;53990;50.334;18.640;2023-06-22T10:08:59;11.20;;;10.10;;
67074;SDS011;53990;50.334;18.640;2023-06-22T10:11:25;11.20;;;10.10;;
67074;SDS011;53990;50.334;18.640;2023-06-22T10:13:55;11.10;;;10.00;;
67074;SDS011;53990;50.334;18.640;2023-06-22T10:16:29;10.60;;;9.60;;
67074;SDS011;53990;50.334;18.640;2023-06-22T10:18:56;10.70;;;9.40;;
67074;SDS011;53990;50.334;18.640;2023-06-22T10:21:23;10.30;;;9.30;;
67074;SDS011;53990;50.334;18.640;2023-06-22T10:23:50;9.80;;;8.80;;
67074;SDS011;53990;50.334;18.640;2023-06-22T10:26:16;9.80;;;8.80;;
67074;SDS011;53990;50.334;18.640;2023-06-22T10:28:43;10.20;;;9.20;;
67074;SDS011;53990;50.334;18.640;2023-06-22T10:31:10;10.50;;;9.40;;
67074;SDS011;53990;50.334;18.640;2023-06-22T10:33:36;9.80;;;8.80;;
67074;SDS011;53990;50.334;18.640;2023-06-22T10:36:03;10.30;;;9.30;;
67074;SDS011;53990;50.334;18.640;2023-06-22T10:38:32;10.60;;;9.50;;
67074;SDS011;53990;50.334;18.640;2023-06-22T10:41:03;10.60;;;9.60;;
67074;SDS011;53990;50.334;18.640;2023-06-22T10:43:29;10.00;;;9.00;;
67074;SDS011;53990;50.334;18.640;2023-06-22T10:45:56;10.60;;;9.50;;
67074;SDS011;53990;50.334;18.640;2023-06-22T10:48:22;10.70;;;9.20;;
67074;SDS011;53990;50.334;18.640;2023-06-22T10:50:49;11.00;;;9.70;;
67074;SDS011;53990;50.334;18.640;2023-06-22T10:53:16;10.40;;;9.40;;
67074;SDS011;53990;50.334;18.640;2023-06-22T10:55:43;10.50;;;9.20;;
67074;SDS011;53990;50.334;18.640;2023-06-22T10:58:09;10.90;;;9.80;;
67074;SDS011;53990;50.334;18.640;2023-06-22T11:00:36;9.90;;;8.70;;
67074;SDS011;53990;50.334;18.640;2023-06-22T11:03:03;10.20;;;9.20;;
67074;SDS011;53990;50.334;18.640;2023-06-22T11:05:30;9.90;;;9.00;;
67074;SDS011;53990;50.334;18.640;2023-06-22T11:07:56;10.90;;;9.90;;
67074;SDS011;53990;50.334;18.640;2023-06-22T11:10:23;10.80;;;9.50;;
67074;SDS011;53990;50.334;18.640;2023-06-22T11:12:50;10.50;;;9.40;;
67074;SDS011;53990;50.334;18.640;2023-06-22T11:15:17;9.50;;;8.70;;
67074;SDS011;53990;50.334;18.640;2023-06-22T11:17:44;9.70;;;8.70;;
67074;SDS011;53990;50.334;18.640;2023-06-22T11:20:11;10.80;;;9.00;;
67074;SDS011;53990;50.334;18.640;2023-06-22T11:22:42;10.40;;;8.70;;
67074;SDS011;53990;50.334;18.640;2023-06-22T11:25:09;10.60;;;9.10;;
67074;SDS011;53990;50.334;18.640;2023-06-22T11:27:37;9.50;;;8.60;;
67074;SDS011;53990;50.334;18.640;2023-06-22T11:30:04;9.70;;;8.80;;
67074;SDS011;53990;50.334;18.640;2023-06-22T11:32:31;10.80;;;9.40;;
67074;SDS011;53990;50.334;18.640;2023-06-22T11:34:58;11.40;;;9.80;;
67074;SDS011;53990;50.334;18.640;2023-06-22T11:37:24;10.30;;;9.30;;
67074;SDS011;53990;50.334;18.640;2023-06-22T11:39:51;9.80;;;8.90;;
67074;SDS011;53990;50.334;18.640;2023-06-22T11:42:21;10.50;;;9.20;;
67074;SDS011;53990;50.334;18.640;2023-06-22T11:44:50;10.50;;;9.40;;
67074;SDS011;53990;50.334;18.640;2023-06-22T11:47:16;11.30;;;10.20;;
67074;SDS011;53990;50.334;18.640;2023-06-22T11:49:43;10.40;;;9.30;;
67074;SDS011;53990;50.334;18.640;2023-06-22T11:52:10;10.70;;;9.70;;
67074;SDS011;53990;50.334;18.640;2023-06-22T11:54:36;10.50;;;9.50;;
67074;SDS011;53990;50.334;18.640;2023-06-22T11:57:04;10.70;;;9.20;;
67074;SDS011;53990;50.334;18.640;2023-06-22T11:59:30;10.40;;;9.30;;
67074;SDS011;53990;50.334;18.640;2023-06-22T12:01:57;10.30;;;9.20;;
67074;SDS011;53990;50.334;18.640;2023-06-22T12:04:25;10.50;;;9.50;;
67074;SDS011;53990;50.334;18.640;2023-06-22T12:06:51;10.30;;;9.20;;
67074;SDS011;53990;50.334;18.640;2023-06-22T12:09:18;11.70;;;9.50;;
67074;SDS011;53990;50.334;18.640;2023-06-22T12:11:45;11.40;;;9.10;;
67074;SDS011;53990;50.334;18.640;2023-06-22T12:14:11;11.30;;;9.30;;
67074;SDS011;53990;50.334;18.640;2023-06-22T12:16:38;9.60;;;8.70;;
67074;SDS011;53990;50.334;18.640;2023-06-22T12:19:05;9.50;;;8.60;;
67074;SDS011;53990;50.334;18.640;2023-06-22T12:21:32;9.90;;;8.90;;
67074;SDS011;53990;50.334;18.640;2023-06-22T12:23:58;9.40;;;8.50;;
67074;SDS011;53990;50.334;18.640;2023-06-22T12:26:25;9.40;;;8.40;;
67074;SDS011;53990;50.334;18.640;2023-06-22T12:28:52;8.70;;;7.80;;
67074;SDS011;53990;50.334;18.640;2023-06-22T12:31:18;8.40;;;7.30;;
67074;SDS011;53990;50.334;18.640;2023-06-22T12:33:45;8.80;;;7.80;;
67074;SDS011;53990;50.334;18.640;2023-06-22T12:36:12;8.00;;;7.20;;
67074;SDS011;53990;50.334;18.640;2023-06-22T12:38:38;7.40;;;6.70;;
67074;SDS011;53990;50.334;18.640;2023-06-22T12:41:05;7.20;;;6.50;;
67074;SDS011;53990;50.334;18.640;2023-06-22T12:43:32;7.40;;;6.60;;
67074;SDS011;53990;50.334;18.640;2023-06-22T12:45:58;8.30;;;7.40;;
67074;SDS011;53990;50.334;18.640;2023-06-22T12:48:26;7.70;;;7.00;;
67074;SDS011;53990;50.334;18.640;2023-06-22T12:50:53;8.90;;;7.00;;
67074;SDS011;53990;50.334;18.640;2023-06-22T12:53:20;8.10;;;7.40;;
67074;SDS011;53990;50.334;18.640;2023-06-22T12:55:49;8.50;;;7.60;;
67074;SDS011;53990;50.334;18.640;2023-06-22T12:58:15;8.70;;;7.90;;
67074;SDS011;53990;50.334;18.640;2023-06-22T13:00:43;8.90;;;8.30;;
67074;SDS011;53990;50.334;18.640;2023-06-22T13:03:09;9.60;;;9.00;;
67074;SDS011;53990;50.334;18.640;2023-06-22T13:05:36;10.00;;;9.30;;
67074;SDS011;53990;50.334;18.640;2023-06-22T13:08:03;11.70;;;11.00;;
67074;SDS011;53990;50.334;18.640;2023-06-22T13:10:30;11.00;;;10.20;;
67074;SDS011;53990;50.334;18.640;2023-06-22T13:12:57;13.50;;;12.50;;
67074;SDS011;53990;50.334;18.640;2023-06-22T13:15:28;14.10;;;13.20;;
67074;SDS011;53990;50.334;18.640;2023-06-22T13:17:55;14.50;;;13.70;;
67074;SDS011;53990;50.334;18.640;2023-06-22T13:20:22;14.80;;;14.00;;
67074;SDS011;53990;50.334;18.640;2023-06-22T13:22:48;15.40;;;14.50;;
67074;SDS011;53990;50.334;18.640;2023-06-22T13:25:15;16.70;;;15.60;;
67074;SDS011;53990;50.334;18.640;2023-06-22T13:27:45;16.90;;;16.00;;
67074;SDS011;53990;50.334;18.640;2023-06-22T13:30:13;16.90;;;15.80;;
67074;SDS011;53990;50.334;18.640;2023-06-22T13:32:40;17.00;;;16.00;;
67074;SDS011;53990;50.334;18.640;2023-06-22T13:35:11;14.40;;;13.50;;
67074;SDS011;53990;50.334;18.640;2023-06-22T13:37:38;14.60;;;13.70;;
67074;SDS011;53990;50.334;18.640;2023-06-22T13:40:06;14.20;;;13.40;;
67074;SDS011;53990;50.334;18.640;2023-06-22T13:42:34;14.30;;;13.50;;
67074;SDS011;53990;50.334;18.640;2023-06-22T13:45:01;14.10;;;13.20;;
67074;SDS011;53990;50.334;18.640;2023-06-22T13:47:29;14.20;;;13.30;;
67074;SDS011;53990;50.334;18.640;2023-06-22T13:49:56;13.50;;;12.80;;
67074;SDS011;53990;50.334;18.640;2023-06-22T13:52:24;13.00;;;12.10;;
67074;SDS011;53990;50.334;18.640;2023-06-22T13:54:51;13.00;;;12.20;;
67074;SDS011;53990;50.334;18.640;2023-06-22T13:57:17;13.50;;;12.50;;
67074;SDS011;53990;50.334;18.640;2023-06-22T13:59:44;13.00;;;12.20;;
67074;SDS011;53990;50.334;18.640;2023-06-22T14:02:11;12.40;;;11.70;;
67074;SDS011;53990;50.334;18.640;2023-06-22T14:04:37;12.30;;;11.50;;
67074;SDS011;53990;50.334;18.640;2023-06-22T14:07:04;11.80;;;10.90;;
67074;SDS011;53990;50.334;18.640;2023-06-22T14:09:31;11.80;;;11.10;;
67074;SDS011;53990;50.334;18.640;2023-06-22T14:11:58;11.90;;;11.20;;
67074;SDS011;53990;50.334;18.640;2023-06-22T14:14:28;10.40;;;9.70;;
67074;SDS011;53990;50.334;18.640;2023-06-22T14:16:55;11.30;;;10.50;;
67074;SDS011;53990;50.334;18.640;2023-06-22T14:19:22;11.00;;;10.00;;
67074;SDS011;53990;50.334;18.640;2023-06-22T14:21:49;11.00;;;10.20;;